| Time | Avg. Air Temp | Dew Point | Avg. Rel Humidity | Avg. 2 Min Wind Speed | Max Gust Velocity | MGV Time | MGV Direction | Avg. Spot Wind Velocity |
|---|---|---|---|---|---|---|---|---|
| 2026-05-05 09:45:00 | 1° C | -7° C | 51% | 15 km/h | 19 km/h | 09:42:00 | NE | 15 km/h |
| 08:45:00 | 1° C | -8° C | 51% | 24 km/h | 31 km/h | 08:43:00 | NE | 25 km/h |
| 07:45:00 | 1° C | -8° C | 52% | 28 km/h | 32 km/h | 07:43:00 | NE | 27 km/h |
| 06:45:00 | 0° C | -8° C | 53% | 25 km/h | 32 km/h | 06:45:00 | NE | 25 km/h |
| 05:45:00 | 0° C | -8° C | 52% | 33 km/h | 36 km/h | 05:44:00 | NE | 30 km/h |
| 04:45:00 | 0° C | -8° C | 53% | 27 km/h | 33 km/h | 04:45:00 | NE | 25 km/h |
| 03:45:00 | 1° C | -8° C | 52% | 30 km/h | 37 km/h | 03:41:00 | NE | 30 km/h |
| 02:45:00 | 1° C | -8° C | 51% | 28 km/h | 36 km/h | 02:43:00 | NE | 29 km/h |
| 01:45:00 | 1° C | -7° C | 54% | 25 km/h | 31 km/h | 01:44:00 | NE | 22 km/h |
| 00:45:00 | 1° C | -7° C | 55% | 38 km/h | 43 km/h | 00:44:00 | NE | 37 km/h |
| 23:45:00 | 2° C | -6° C | 58% | 36 km/h | 42 km/h | 23:43:00 | NE | 33 km/h |
| 22:45:00 | 2° C | -5° C | 59% | 27 km/h | 35 km/h | 22:43:00 | NE | 21 km/h |
| 21:45:00 | 3° C | -5° C | 58% | 22 km/h | 32 km/h | 21:43:00 | NE | 22 km/h |
| 20:45:00 | 3° C | -4° C | 57% | 14 km/h | 32 km/h | 20:43:00 | NE | 22 km/h |
| 19:45:00 | 4° C | -4° C | 56% | 24 km/h | 28 km/h | 19:42:00 | NE | 21 km/h |
| 18:45:00 | 5° C | -3° C | 54% | 3 km/h | 7 km/h | 18:42:00 | E | 3 km/h |
| 17:45:00 | 6° C | -3° C | 51% | 4 km/h | 12 km/h | 17:45:00 | NE | 3 km/h |
| 16:45:00 | 6° C | -3° C | 54% | 2 km/h | 11 km/h | 16:41:00 | W | 3 km/h |
| 15:45:00 | 5° C | -3° C | 56% | 11 km/h | 23 km/h | 15:43:00 | NE | 13 km/h |
| 14:45:00 | 6° C | -3° C | 53% | 1 km/h | 16 km/h | 14:41:00 | NE | 6 km/h |
| 13:45:00 | 5° C | -3° C | 54% | 10 km/h | 15 km/h | 13:44:00 | NE | 10 km/h |
| 12:45:00 | 6° C | -3° C | 53% | 4 km/h | 6 km/h | 12:45:00 | NE | 3 km/h |
| 11:45:00 | 4° C | -3° C | 58% | 2 km/h | 10 km/h | 11:41:00 | E | 4 km/h |
| 10:45:00 | 4° C | -3° C | 61% | 28 km/h | 35 km/h | 10:44:00 | NE | 31 km/h |
Subpeak Weather
| Time | Avg. Air Temp | Dew Point | Avg. Rel Humidity | Avg. 2 Min Wind Speed | Max Gust Velocity | MGV Time | MGV Direction | Avg. Spot Wind Velocity |
|---|---|---|---|---|---|---|---|---|
| 2026-05-05 09:45:00 | 1° C | -7° C | 51% | 15 km/h | 19 km/h | 09:42:00 | NE | 15 km/h |
| 09:40:00 | 1° C | -8° C | 48% | 18 km/h | 23 km/h | 09:37:00 | NE | 19 km/h |
| 09:35:00 | 1° C | -9° C | 49% | 21 km/h | 25 km/h | 09:33:00 | NE | 21 km/h |
| 09:30:00 | 1° C | -8° C | 49% | 20 km/h | 22 km/h | 09:30:00 | NE | 20 km/h |
| 09:25:00 | 1° C | -8° C | 49% | 21 km/h | 25 km/h | 09:23:00 | NE | 21 km/h |
| 09:20:00 | 1° C | -9° C | 48% | 21 km/h | 27 km/h | 09:18:00 | E | 23 km/h |
| 09:15:00 | 1° C | -8° C | 50% | 21 km/h | 28 km/h | 09:13:00 | NE | 23 km/h |
| 09:10:00 | 1° C | -8° C | 50% | 19 km/h | 26 km/h | 09:09:00 | NE | 21 km/h |
| 09:05:00 | 1° C | -8° C | 49% | 23 km/h | 26 km/h | 09:01:00 | NE | 23 km/h |
| 09:00:00 | 1° C | -8° C | 51% | 24 km/h | 27 km/h | 08:59:00 | NE | 23 km/h |
| 08:55:00 | 1° C | -8° C | 51% | 24 km/h | 27 km/h | 08:52:00 | NE | 23 km/h |
| 08:50:00 | 1° C | -8° C | 51% | 22 km/h | 28 km/h | 08:46:00 | NE | 25 km/h |
| 08:45:00 | 1° C | -8° C | 51% | 24 km/h | 31 km/h | 08:43:00 | NE | 25 km/h |




